sensor_id;sensor_type;location;lat;lon;timestamp;pressure;altitude;pressure_sealevel;temperature;humidity
9225;BME280;4647;48.072;11.616;2023-05-23T00:02:24;94977.13;;;15.43;75.16
9225;BME280;4647;48.072;11.616;2023-05-23T00:04:53;94976.16;;;15.37;75.62
9225;BME280;4647;48.072;11.616;2023-05-23T00:07:22;94974.63;;;15.36;75.68
9225;BME280;4647;48.072;11.616;2023-05-23T00:09:53;94980.56;;;15.34;75.55
9225;BME280;4647;48.072;11.616;2023-05-23T00:12:22;94984.19;;;15.31;75.80
9225;BME280;4647;48.072;11.616;2023-05-23T00:14:50;94980.72;;;15.09;76.20
9225;BME280;4647;48.072;11.616;2023-05-23T00:17:19;94984.44;;;15.24;76.29
9225;BME280;4647;48.072;11.616;2023-05-23T00:19:49;94989.91;;;15.24;76.25
9225;BME280;4647;48.072;11.616;2023-05-23T00:22:20;94989.47;;;15.26;76.08
9225;BME280;4647;48.072;11.616;2023-05-23T00:24:48;94980.38;;;15.29;75.65
9225;BME280;4647;48.072;11.616;2023-05-23T00:27:19;94980.75;;;15.40;74.85
9225;BME280;4647;48.072;11.616;2023-05-23T00:29:48;94985.16;;;15.47;74.42
9225;BME280;4647;48.072;11.616;2023-05-23T00:32:16;94983.81;;;15.51;73.92
9225;BME280;4647;48.072;11.616;2023-05-23T00:34:45;94977.09;;;15.65;73.49
9225;BME280;4647;48.072;11.616;2023-05-23T00:37:13;94978.94;;;15.77;73.04
9225;BME280;4647;48.072;11.616;2023-05-23T00:39:42;94977.88;;;15.84;72.15
9225;BME280;4647;48.072;11.616;2023-05-23T00:42:10;94986.88;;;15.93;71.80
9225;BME280;4647;48.072;11.616;2023-05-23T00:44:41;94986.16;;;16.02;71.31
9225;BME280;4647;48.072;11.616;2023-05-23T00:47:10;94985.69;;;16.04;71.17
9225;BME280;4647;48.072;11.616;2023-05-23T00:49:38;94977.19;;;16.02;70.82
9225;BME280;4647;48.072;11.616;2023-05-23T00:52:07;94976.88;;;16.09;70.29
9225;BME280;4647;48.072;11.616;2023-05-23T00:54:36;94987.56;;;16.25;70.26
9225;BME280;4647;48.072;11.616;2023-05-23T00:57:06;94981.31;;;16.24;70.02
9225;BME280;4647;48.072;11.616;2023-05-23T00:59:36;94994.56;;;16.35;69.84
9225;BME280;4647;48.072;11.616;2023-05-23T01:02:08;94974.53;;;16.38;69.33
9225;BME280;4647;48.072;11.616;2023-05-23T01:04:37;94995.78;;;16.34;69.65
9225;BME280;4647;48.072;11.616;2023-05-23T01:07:05;94989.69;;;16.30;69.63
9225;BME280;4647;48.072;11.616;2023-05-23T01:09:34;94993.50;;;16.33;69.90
9225;BME280;4647;48.072;11.616;2023-05-23T01:12:14;94987.44;;;16.38;69.29
9225;BME280;4647;48.072;11.616;2023-05-23T01:14:47;94991.19;;;16.31;69.39
9225;BME280;4647;48.072;11.616;2023-05-23T01:17:25;94997.16;;;16.39;69.35
9225;BME280;4647;48.072;11.616;2023-05-23T01:19:58;94990.47;;;16.40;69.54
9225;BME280;4647;48.072;11.616;2023-05-23T01:22:58;94999.13;;;16.38;69.03
9225;BME280;4647;48.072;11.616;2023-05-23T01:25:43;94992.72;;;16.32;69.84
9225;BME280;4647;48.072;11.616;2023-05-23T01:28:19;94986.38;;;16.35;69.47
9225;BME280;4647;48.072;11.616;2023-05-23T01:30:50;94994.13;;;16.37;69.38
9225;BME280;4647;48.072;11.616;2023-05-23T01:33:19;94967.94;;;16.08;69.77
9225;BME280;4647;48.072;11.616;2023-05-23T01:35:47;94999.41;;;16.31;69.64
9225;BME280;4647;48.072;11.616;2023-05-23T01:38:16;94992.00;;;16.41;69.13
9225;BME280;4647;48.072;11.616;2023-05-23T01:40:45;94993.81;;;16.44;69.38
9225;BME280;4647;48.072;11.616;2023-05-23T01:43:14;94999.88;;;16.48;69.42
9225;BME280;4647;48.072;11.616;2023-05-23T01:45:45;95001.88;;;16.56;68.76
9225;BME280;4647;48.072;11.616;2023-05-23T01:48:15;95000.94;;;16.50;69.25
9225;BME280;4647;48.072;11.616;2023-05-23T01:50:45;95003.53;;;16.54;69.32
9225;BME280;4647;48.072;11.616;2023-05-23T01:53:15;95002.47;;;16.51;69.35
9225;BME280;4647;48.072;11.616;2023-05-23T01:55:44;95001.88;;;16.56;69.21
9225;BME280;4647;48.072;11.616;2023-05-23T01:58:13;95012.03;;;16.56;68.96
9225;BME280;4647;48.072;11.616;2023-05-23T02:00:41;95014.19;;;16.61;68.81
9225;BME280;4647;48.072;11.616;2023-05-23T02:03:13;95018.91;;;16.61;69.20
9225;BME280;4647;48.072;11.616;2023-05-23T02:05:41;95021.47;;;16.55;68.97
9225;BME280;4647;48.072;11.616;2023-05-23T02:08:10;95015.41;;;16.60;69.18
9225;BME280;4647;48.072;11.616;2023-05-23T02:10:38;95017.34;;;16.50;69.40
9225;BME280;4647;48.072;11.616;2023-05-23T02:13:06;95022.38;;;16.43;69.60
9225;BME280;4647;48.072;11.616;2023-05-23T02:15:35;95032.56;;;16.51;69.28
9225;BME280;4647;48.072;11.616;2023-05-23T02:18:03;95030.88;;;16.45;69.46
9225;BME280;4647;48.072;11.616;2023-05-23T02:20:34;95007.91;;;16.24;69.79
9225;BME280;4647;48.072;11.616;2023-05-23T02:23:03;95028.75;;;16.49;69.67
9225;BME280;4647;48.072;11.616;2023-05-23T02:25:31;95025.88;;;16.43;70.34
9225;BME280;4647;48.072;11.616;2023-05-23T02:28:00;95035.72;;;16.32;70.61
9225;BME280;4647;48.072;11.616;2023-05-23T02:30:28;95028.09;;;16.17;70.52
9225;BME280;4647;48.072;11.616;2023-05-23T02:32:57;95038.59;;;16.28;70.89
9225;BME280;4647;48.072;11.616;2023-05-23T02:35:25;95027.94;;;16.12;71.12
9225;BME280;4647;48.072;11.616;2023-05-23T02:37:56;95030.97;;;16.14;71.14
9225;BME280;4647;48.072;11.616;2023-05-23T02:40:24;95022.13;;;16.01;71.33
9225;BME280;4647;48.072;11.616;2023-05-23T02:42:53;95038.09;;;16.11;71.69
9225;BME280;4647;48.072;11.616;2023-05-23T02:45:22;95039.56;;;15.94;72.27
9225;BME280;4647;48.072;11.616;2023-05-23T02:47:50;95035.53;;;15.77;72.80
9225;BME280;4647;48.072;11.616;2023-05-23T02:50:18;95040.41;;;15.82;72.60
9225;BME280;4647;48.072;11.616;2023-05-23T02:52:47;95037.03;;;15.69;72.73
9225;BME280;4647;48.072;11.616;2023-05-23T02:55:18;95044.81;;;15.57;73.72
9225;BME280;4647;48.072;11.616;2023-05-23T02:57:47;95041.91;;;15.52;74.23
9225;BME280;4647;48.072;11.616;2023-05-23T03:00:16;95014.47;;;15.24;74.50
9225;BME280;4647;48.072;11.616;2023-05-23T03:02:44;95045.75;;;15.32;74.76
9225;BME280;4647;48.072;11.616;2023-05-23T03:05:13;95042.53;;;15.25;75.35
9225;BME280;4647;48.072;11.616;2023-05-23T03:07:41;95042.22;;;15.23;75.46
9225;BME280;4647;48.072;11.616;2023-05-23T03:10:10;95039.81;;;15.25;75.67
9225;BME280;4647;48.072;11.616;2023-05-23T03:12:41;95033.19;;;15.35;75.45
9225;BME280;4647;48.072;11.616;2023-05-23T03:15:10;95045.63;;;15.36;75.54
9225;BME280;4647;48.072;11.616;2023-05-23T03:17:38;95047.28;;;15.33;75.40
9225;BME280;4647;48.072;11.616;2023-05-23T03:20:07;95044.75;;;15.17;76.31
9225;BME280;4647;48.072;11.616;2023-05-23T03:22:36;95051.22;;;15.32;75.22
9225;BME280;4647;48.072;11.616;2023-05-23T03:25:07;95042.44;;;15.38;75.66
9225;BME280;4647;48.072;11.616;2023-05-23T03:27:35;95037.34;;;15.49;75.37
9225;BME280;4647;48.072;11.616;2023-05-23T03:30:08;95036.47;;;15.52;75.35
9225;BME280;4647;48.072;11.616;2023-05-23T03:32:36;95043.31;;;15.56;74.69
9225;BME280;4647;48.072;11.616;2023-05-23T03:35:07;95031.94;;;15.58;74.75
9225;BME280;4647;48.072;11.616;2023-05-23T03:37:35;95041.16;;;15.73;74.67
9225;BME280;4647;48.072;11.616;2023-05-23T03:40:05;95026.81;;;15.60;74.14
9225;BME280;4647;48.072;11.616;2023-05-23T03:42:35;95044.19;;;15.75;74.31
9225;BME280;4647;48.072;11.616;2023-05-23T03:45:06;95049.34;;;15.73;74.60
9225;BME280;4647;48.072;11.616;2023-05-23T03:47:34;95051.75;;;15.71;74.32
9225;BME280;4647;48.072;11.616;2023-05-23T03:50:03;95054.53;;;15.80;74.55
9225;BME280;4647;48.072;11.616;2023-05-23T03:52:32;95056.56;;;15.89;74.25
9225;BME280;4647;48.072;11.616;2023-05-23T03:55:00;95012.59;;;15.65;73.95
9225;BME280;4647;48.072;11.616;2023-05-23T03:57:29;95056.25;;;15.96;73.81
9225;BME280;4647;48.072;11.616;2023-05-23T03:59:57;95046.72;;;16.01;73.84
9225;BME280;4647;48.072;11.616;2023-05-23T04:02:28;95041.84;;;15.95;73.09
9225;BME280;4647;48.072;11.616;2023-05-23T04:04:57;95060.72;;;16.12;72.97
9225;BME280;4647;48.072;11.616;2023-05-23T04:07:26;95051.59;;;16.06;73.35
9225;BME280;4647;48.072;11.616;2023-05-23T04:09:54;95061.66;;;16.18;72.88
9225;BME280;4647;48.072;11.616;2023-05-23T04:12:23;95066.69;;;16.28;73.16
9225;BME280;4647;48.072;11.616;2023-05-23T04:14:51;95061.72;;;16.45;72.03
9225;BME280;4647;48.072;11.616;2023-05-23T04:17:20;95065.97;;;16.37;72.51
9225;BME280;4647;48.072;11.616;2023-05-23T04:19:51;95068.41;;;16.53;72.15
9225;BME280;4647;48.072;11.616;2023-05-23T04:22:19;95061.88;;;16.51;71.61
9225;BME280;4647;48.072;11.616;2023-05-23T04:24:47;95077.59;;;16.69;71.47
9225;BME280;4647;48.072;11.616;2023-05-23T04:27:16;95071.06;;;16.66;71.11
9225;BME280;4647;48.072;11.616;2023-05-23T04:29:46;95078.81;;;16.77;71.03
9225;BME280;4647;48.072;11.616;2023-05-23T04:32:15;95088.41;;;16.81;70.76
9225;BME280;4647;48.072;11.616;2023-05-23T04:34:47;95096.63;;;16.91;70.97
9225;BME280;4647;48.072;11.616;2023-05-23T04:37:18;95095.72;;;16.84;70.72
9225;BME280;4647;48.072;11.616;2023-05-23T04:39:50;95100.56;;;16.90;70.37
9225;BME280;4647;48.072;11.616;2023-05-23T04:42:19;95109.69;;;16.86;70.71
9225;BME280;4647;48.072;11.616;2023-05-23T04:44:50;95107.72;;;16.87;71.03
9225;BME280;4647;48.072;11.616;2023-05-23T04:47:21;95102.66;;;16.76;71.07
9225;BME280;4647;48.072;11.616;2023-05-23T04:49:53;95107.22;;;16.79;71.01
9225;BME280;4647;48.072;11.616;2023-05-23T04:52:24;95106.94;;;16.86;70.86
9225;BME280;4647;48.072;11.616;2023-05-23T04:54:54;95105.88;;;17.02;70.42
9225;BME280;4647;48.072;11.616;2023-05-23T04:57:22;95100.75;;;17.04;70.86
9225;BME280;4647;48.072;11.616;2023-05-23T04:59:50;95099.06;;;17.07;70.89
9225;BME280;4647;48.072;11.616;2023-05-23T05:02:19;95094.03;;;16.96;70.58
9225;BME280;4647;48.072;11.616;2023-05-23T05:04:47;95099.38;;;17.09;70.71
9225;BME280;4647;48.072;11.616;2023-05-23T05:07:15;95073.50;;;16.73;70.75
9225;BME280;4647;48.072;11.616;2023-05-23T05:09:46;95095.25;;;16.95;71.28
9225;BME280;4647;48.072;11.616;2023-05-23T05:12:15;95101.66;;;17.10;70.55
9225;BME280;4647;48.072;11.616;2023-05-23T05:14:43;95097.38;;;17.09;70.82
9225;BME280;4647;48.072;11.616;2023-05-23T05:17:12;95092.66;;;17.28;69.86
9225;BME280;4647;48.072;11.616;2023-05-23T05:19:41;95095.84;;;17.45;69.51
9225;BME280;4647;48.072;11.616;2023-05-23T05:22:09;95106.63;;;17.58;69.62
9225;BME280;4647;48.072;11.616;2023-05-23T05:24:38;95105.06;;;17.84;68.69
9225;BME280;4647;48.072;11.616;2023-05-23T05:27:10;95098.91;;;18.07;67.67
9225;BME280;4647;48.072;11.616;2023-05-23T05:29:38;95100.13;;;18.39;66.52
9225;BME280;4647;48.072;11.616;2023-05-23T05:32:06;95083.94;;;18.18;66.74
9225;BME280;4647;48.072;11.616;2023-05-23T05:34:35;95097.56;;;18.36;67.05
9225;BME280;4647;48.072;11.616;2023-05-23T05:37:04;95097.28;;;18.34;66.84
9225;BME280;4647;48.072;11.616;2023-05-23T05:39:32;95100.13;;;18.39;66.93
9225;BME280;4647;48.072;11.616;2023-05-23T05:42:00;95087.19;;;18.73;65.81
9225;BME280;4647;48.072;11.616;2023-05-23T05:44:32;95087.00;;;19.54;63.64
9225;BME280;4647;48.072;11.616;2023-05-23T05:47:00;95095.00;;;20.46;60.26
9225;BME280;4647;48.072;11.616;2023-05-23T05:49:29;95096.16;;;20.74;58.68
9225;BME280;4647;48.072;11.616;2023-05-23T05:51:57;95100.88;;;20.39;59.38
9225;BME280;4647;48.072;11.616;2023-05-23T05:54:25;95099.13;;;20.06;61.13
9225;BME280;4647;48.072;11.616;2023-05-23T05:56:54;95097.81;;;20.02;61.19
9225;BME280;4647;48.072;11.616;2023-05-23T05:59:22;95101.66;;;20.24;61.12
9225;BME280;4647;48.072;11.616;2023-05-23T06:01:54;95098.88;;;20.54;59.96
9225;BME280;4647;48.072;11.616;2023-05-23T06:04:22;95098.75;;;20.63;59.09
9225;BME280;4647;48.072;11.616;2023-05-23T06:06:50;95104.69;;;20.97;58.61
9225;BME280;4647;48.072;11.616;2023-05-23T06:09:19;95124.13;;;20.38;60.04
9225;BME280;4647;48.072;11.616;2023-05-23T06:11:47;95124.06;;;20.17;59.52
9225;BME280;4647;48.072;11.616;2023-05-23T06:14:15;95117.66;;;19.91;61.38
9225;BME280;4647;48.072;11.616;2023-05-23T06:16:44;95110.13;;;20.06;60.82
9225;BME280;4647;48.072;11.616;2023-05-23T06:19:15;95123.50;;;20.13;61.14
9225;BME280;4647;48.072;11.616;2023-05-23T06:21:43;95108.72;;;19.81;61.24
9225;BME280;4647;48.072;11.616;2023-05-23T06:24:12;95127.88;;;19.90;61.83
9225;BME280;4647;48.072;11.616;2023-05-23T06:26:40;95123.03;;;20.00;61.56
9225;BME280;4647;48.072;11.616;2023-05-23T06:29:08;95124.94;;;19.94;61.76
9225;BME280;4647;48.072;11.616;2023-05-23T06:31:37;95123.97;;;19.82;62.11
9225;BME280;4647;48.072;11.616;2023-05-23T06:34:05;95125.97;;;20.41;60.83
9225;BME280;4647;48.072;11.616;2023-05-23T06:36:36;95122.03;;;20.33;60.78
9225;BME280;4647;48.072;11.616;2023-05-23T06:39:04;95114.59;;;20.04;60.43
9225;BME280;4647;48.072;11.616;2023-05-23T06:41:34;95109.47;;;19.82;61.47
9225;BME280;4647;48.072;11.616;2023-05-23T06:44:02;95114.88;;;20.20;61.70
9225;BME280;4647;48.072;11.616;2023-05-23T06:46:31;95124.59;;;20.51;60.22
9225;BME280;4647;48.072;11.616;2023-05-23T06:48:59;95126.59;;;20.50;60.61
9225;BME280;4647;48.072;11.616;2023-05-23T06:51:27;95123.69;;;20.24;61.29
9225;BME280;4647;48.072;11.616;2023-05-23T06:53:58;95130.06;;;20.66;59.86
9225;BME280;4647;48.072;11.616;2023-05-23T06:56:27;95126.31;;;21.04;58.94
9225;BME280;4647;48.072;11.616;2023-05-23T06:58:55;95121.50;;;20.99;58.98
9225;BME280;4647;48.072;11.616;2023-05-23T07:01:25;95127.47;;;20.77;59.06
9225;BME280;4647;48.072;11.616;2023-05-23T07:03:53;95132.44;;;20.93;59.48
9225;BME280;4647;48.072;11.616;2023-05-23T07:06:22;95133.06;;;20.82;58.86
9225;BME280;4647;48.072;11.616;2023-05-23T07:08:51;95138.03;;;20.99;59.03
9225;BME280;4647;48.072;11.616;2023-05-23T07:11:22;95137.28;;;21.39;57.98
9225;BME280;4647;48.072;11.616;2023-05-23T07:13:51;95131.44;;;21.78;56.94
9225;BME280;4647;48.072;11.616;2023-05-23T07:16:20;95137.09;;;21.42;56.88
9225;BME280;4647;48.072;11.616;2023-05-23T07:18:48;95123.97;;;20.97;58.26
9225;BME280;4647;48.072;11.616;2023-05-23T07:21:17;95147.03;;;20.44;60.29
9225;BME280;4647;48.072;11.616;2023-05-23T07:23:45;95150.09;;;20.66;60.17
9225;BME280;4647;48.072;11.616;2023-05-23T07:26:13;95147.00;;;21.14;59.10
9225;BME280;4647;48.072;11.616;2023-05-23T07:28:44;95148.66;;;21.26;57.94
9225;BME280;4647;48.072;11.616;2023-05-23T07:31:13;95145.25;;;20.96;59.33
9225;BME280;4647;48.072;11.616;2023-05-23T07:33:41;95154.00;;;20.95;59.55
9225;BME280;4647;48.072;11.616;2023-05-23T07:36:10;95149.28;;;20.45;60.72
9225;BME280;4647;48.072;11.616;2023-05-23T07:38:38;95148.84;;;20.17;61.78
9225;BME280;4647;48.072;11.616;2023-05-23T07:41:07;95158.19;;;20.11;61.51
9225;BME280;4647;48.072;11.616;2023-05-23T07:43:35;95147.03;;;20.14;61.18
9225;BME280;4647;48.072;11.616;2023-05-23T07:46:06;95152.53;;;20.44;61.17
9225;BME280;4647;48.072;11.616;2023-05-23T07:48:35;95155.94;;;20.39;60.72
9225;BME280;4647;48.072;11.616;2023-05-23T07:51:03;95152.72;;;20.26;61.58
9225;BME280;4647;48.072;11.616;2023-05-23T07:53:32;95158.22;;;19.96;61.85
9225;BME280;4647;48.072;11.616;2023-05-23T07:56:04;95152.44;;;20.23;61.70
9225;BME280;4647;48.072;11.616;2023-05-23T07:58:32;95157.06;;;20.62;60.36
9225;BME280;4647;48.072;11.616;2023-05-23T08:01:01;95154.75;;;20.95;60.00
9225;BME280;4647;48.072;11.616;2023-05-23T08:03:32;95154.00;;;21.30;58.16
9225;BME280;4647;48.072;11.616;2023-05-23T08:06:01;95160.91;;;21.45;58.39
9225;BME280;4647;48.072;11.616;2023-05-23T08:08:31;95164.59;;;21.37;57.49
9225;BME280;4647;48.072;11.616;2023-05-23T08:11:00;95154.91;;;21.06;58.52
9225;BME280;4647;48.072;11.616;2023-05-23T08:13:29;95160.66;;;20.53;59.94
9225;BME280;4647;48.072;11.616;2023-05-23T08:15:57;95161.75;;;20.76;60.90
9225;BME280;4647;48.072;11.616;2023-05-23T08:18:25;95159.41;;;21.24;59.22
9225;BME280;4647;48.072;11.616;2023-05-23T08:20:57;95165.84;;;21.21;58.05
9225;BME280;4647;48.072;11.616;2023-05-23T08:23:27;95163.22;;;20.92;59.60
9225;BME280;4647;48.072;11.616;2023-05-23T08:25:56;95171.53;;;20.77;60.19
9225;BME280;4647;48.072;11.616;2023-05-23T08:28:24;95171.56;;;20.97;58.98
9225;BME280;4647;48.072;11.616;2023-05-23T08:30:53;95176.03;;;20.30;59.91
9225;BME280;4647;48.072;11.616;2023-05-23T08:33:21;95178.69;;;20.24;60.41
9225;BME280;4647;48.072;11.616;2023-05-23T08:35:50;95175.84;;;20.63;60.09
9225;BME280;4647;48.072;11.616;2023-05-23T08:38:23;95164.56;;;20.81;58.73
9225;BME280;4647;48.072;11.616;2023-05-23T08:40:51;95179.53;;;21.30;56.99
9225;BME280;4647;48.072;11.616;2023-05-23T15:07:59;95171.97;;;20.11;62.28
9225;BME280;4647;48.072;11.616;2023-05-23T15:10:28;95173.78;;;19.99;63.02
9225;BME280;4647;48.072;11.616;2023-05-23T15:12:56;95165.59;;;20.05;63.30
9225;BME280;4647;48.072;11.616;2023-05-23T15:15:24;95177.38;;;20.20;63.16
9225;BME280;4647;48.072;11.616;2023-05-23T15:18:01;95182.13;;;20.05;63.10
9225;BME280;4647;48.072;11.616;2023-05-23T15:20:32;95187.91;;;19.92;64.25
9225;BME280;4647;48.072;11.616;2023-05-23T15:23:06;95183.09;;;19.63;64.27
9225;BME280;4647;48.072;11.616;2023-05-23T15:25:34;95190.78;;;19.35;66.13
9225;BME280;4647;48.072;11.616;2023-05-23T15:28:03;95188.19;;;19.17;67.16
9225;BME280;4647;48.072;11.616;2023-05-23T15:30:31;95187.81;;;19.00;67.96
9225;BME280;4647;48.072;11.616;2023-05-23T15:33:00;95188.31;;;18.89;68.86
9225;BME280;4647;48.072;11.616;2023-05-23T15:35:29;95180.38;;;18.91;68.24
9225;BME280;4647;48.072;11.616;2023-05-23T15:37:57;95172.19;;;18.82;69.19
9225;BME280;4647;48.072;11.616;2023-05-23T15:40:28;95180.53;;;18.97;68.28
9225;BME280;4647;48.072;11.616;2023-05-23T15:42:56;95184.78;;;18.98;68.52
9225;BME280;4647;48.072;11.616;2023-05-23T15:45:25;95183.38;;;19.02;69.00
9225;BME280;4647;48.072;11.616;2023-05-23T15:47:53;95195.78;;;19.22;68.19
9225;BME280;4647;48.072;11.616;2023-05-23T15:50:21;95191.06;;;19.37;66.94
9225;BME280;4647;48.072;11.616;2023-05-23T15:52:50;95192.94;;;19.31;67.14
9225;BME280;4647;48.072;11.616;2023-05-23T15:55:18;95191.03;;;19.46;66.67
9225;BME280;4647;48.072;11.616;2023-05-23T15:57:50;95192.00;;;19.34;66.68
9225;BME280;4647;48.072;11.616;2023-05-23T16:00:20;95164.22;;;19.17;66.08
9225;BME280;4647;48.072;11.616;2023-05-23T16:02:48;95193.50;;;19.20;66.56
9225;BME280;4647;48.072;11.616;2023-05-23T16:05:17;95201.47;;;19.33;66.19
9225;BME280;4647;48.072;11.616;2023-05-23T16:07:45;95181.19;;;19.30;64.76
9225;BME280;4647;48.072;11.616;2023-05-23T16:10:14;95188.94;;;19.41;65.12
9225;BME280;4647;48.072;11.616;2023-05-23T16:12:42;95201.59;;;19.62;64.82
9225;BME280;4647;48.072;11.616;2023-05-23T16:15:13;95201.81;;;19.74;63.95
9225;BME280;4647;48.072;11.616;2023-05-23T16:17:41;95200.47;;;19.69;64.46
9225;BME280;4647;48.072;11.616;2023-05-23T16:20:10;95203.63;;;19.77;63.80
9225;BME280;4647;48.072;11.616;2023-05-23T16:22:39;95208.97;;;19.56;63.97
9225;BME280;4647;48.072;11.616;2023-05-23T16:25:10;95209.53;;;19.60;59.18
9225;BME280;4647;48.072;11.616;2023-05-23T16:27:38;95204.75;;;19.46;54.42
9225;BME280;4647;48.072;11.616;2023-05-23T16:30:08;95157.94;;;19.41;54.44
9225;BME280;4647;48.072;11.616;2023-05-23T16:32:39;95207.34;;;20.03;53.86
9225;BME280;4647;48.072;11.616;2023-05-23T16:35:08;95209.44;;;20.08;50.52
9225;BME280;4647;48.072;11.616;2023-05-23T16:37:38;95197.31;;;20.44;49.12
9225;BME280;4647;48.072;11.616;2023-05-23T16:40:07;95190.38;;;20.19;49.32
9225;BME280;4647;48.072;11.616;2023-05-23T16:42:36;95199.53;;;19.87;50.58
9225;BME280;4647;48.072;11.616;2023-05-23T16:45:06;95206.22;;;19.95;50.34
9225;BME280;4647;48.072;11.616;2023-05-23T16:47:34;95199.25;;;19.85;50.37
9225;BME280;4647;48.072;11.616;2023-05-23T16:50:06;95205.34;;;19.50;51.32
9225;BME280;4647;48.072;11.616;2023-05-23T16:52:35;95192.44;;;19.42;51.41
9225;BME280;4647;48.072;11.616;2023-05-23T16:55:04;95202.78;;;19.23;52.05
9225;BME280;4647;48.072;11.616;2023-05-23T16:57:33;95204.31;;;19.24;51.65
9225;BME280;4647;48.072;11.616;2023-05-23T17:00:01;95198.81;;;19.00;53.17
9225;BME280;4647;48.072;11.616;2023-05-23T17:02:29;95204.06;;;19.13;52.47
9225;BME280;4647;48.072;11.616;2023-05-23T17:04:58;95203.47;;;19.09;52.23
9225;BME280;4647;48.072;11.616;2023-05-23T17:07:29;95208.84;;;19.03;52.09
9225;BME280;4647;48.072;11.616;2023-05-23T17:09:58;95211.09;;;18.81;52.59
9225;BME280;4647;48.072;11.616;2023-05-23T17:12:26;95222.03;;;18.90;53.02
9225;BME280;4647;48.072;11.616;2023-05-23T17:14:55;95201.47;;;18.85;52.47
9225;BME280;4647;48.072;11.616;2023-05-23T17:17:23;95207.38;;;18.93;53.01
9225;BME280;4647;48.072;11.616;2023-05-23T17:19:52;95216.28;;;18.79;52.80
9225;BME280;4647;48.072;11.616;2023-05-23T17:22:20;95218.78;;;18.67;52.84
9225;BME280;4647;48.072;11.616;2023-05-23T17:24:51;95221.66;;;18.73;52.99
9225;BME280;4647;48.072;11.616;2023-05-23T17:27:20;95220.00;;;18.66;52.85
9225;BME280;4647;48.072;11.616;2023-05-23T17:29:48;95221.84;;;18.69;53.45
9225;BME280;4647;48.072;11.616;2023-05-23T17:32:16;95233.31;;;18.50;53.86
9225;BME280;4647;48.072;11.616;2023-05-23T17:34:45;95228.44;;;18.45;54.78
9225;BME280;4647;48.072;11.616;2023-05-23T17:37:13;95229.97;;;18.46;55.08
9225;BME280;4647;48.072;11.616;2023-05-23T17:39:42;95210.25;;;18.05;54.59
9225;BME280;4647;48.072;11.616;2023-05-23T17:42:13;95235.94;;;18.35;53.93
9225;BME280;4647;48.072;11.616;2023-05-23T17:44:42;95224.09;;;18.10;55.35
9225;BME280;4647;48.072;11.616;2023-05-23T17:47:10;95209.63;;;18.10;54.73
9225;BME280;4647;48.072;11.616;2023-05-23T17:49:39;95241.63;;;18.22;54.46
9225;BME280;4647;48.072;11.616;2023-05-23T17:52:08;95232.81;;;18.00;54.39
9225;BME280;4647;48.072;11.616;2023-05-23T17:54:39;95247.00;;;17.80;54.39
9225;BME280;4647;48.072;11.616;2023-05-23T17:57:07;95245.75;;;17.90;54.85
9225;BME280;4647;48.072;11.616;2023-05-23T17:59:38;95246.78;;;17.65;55.21
9225;BME280;4647;48.072;11.616;2023-05-23T18:02:07;95259.28;;;17.66;54.53
9225;BME280;4647;48.072;11.616;2023-05-23T18:04:35;95255.66;;;17.69;54.58
9225;BME280;4647;48.072;11.616;2023-05-23T18:07:04;95247.25;;;17.64;54.54
9225;BME280;4647;48.072;11.616;2023-05-23T18:09:32;95270.84;;;17.61;53.97
9225;BME280;4647;48.072;11.616;2023-05-23T18:12:01;95260.19;;;17.54;54.12
9225;BME280;4647;48.072;11.616;2023-05-23T18:14:30;95260.03;;;17.58;54.01
9225;BME280;4647;48.072;11.616;2023-05-23T18:17:01;95253.50;;;17.64;54.13
9225;BME280;4647;48.072;11.616;2023-05-23T18:19:29;95258.22;;;17.55;54.56
9225;BME280;4647;48.072;11.616;2023-05-23T18:21:57;95265.06;;;17.59;53.70
9225;BME280;4647;48.072;11.616;2023-05-23T18:24:26;95257.59;;;17.60;54.23
9225;BME280;4647;48.072;11.616;2023-05-23T18:26:54;95261.38;;;17.35;53.56
9225;BME280;4647;48.072;11.616;2023-05-23T18:29:23;95268.41;;;17.54;53.37
9225;BME280;4647;48.072;11.616;2023-05-23T18:31:51;95260.47;;;17.47;53.24
9225;BME280;4647;48.072;11.616;2023-05-23T18:34:22;95267.63;;;17.44;53.62
9225;BME280;4647;48.072;11.616;2023-05-23T18:36:51;95258.34;;;17.33;53.39
9225;BME280;4647;48.072;11.616;2023-05-23T18:39:19;95272.50;;;17.49;53.37
9225;BME280;4647;48.072;11.616;2023-05-23T18:41:48;95280.09;;;17.36;53.87
9225;BME280;4647;48.072;11.616;2023-05-23T18:44:16;95239.44;;;17.26;54.05
9225;BME280;4647;48.072;11.616;2023-05-23T18:46:44;95283.59;;;17.46;54.04
9225;BME280;4647;48.072;11.616;2023-05-23T18:49:13;95280.22;;;17.24;53.96
9225;BME280;4647;48.072;11.616;2023-05-23T18:51:44;95283.16;;;17.38;53.93
9225;BME280;4647;48.072;11.616;2023-05-23T18:54:12;95283.44;;;17.40;53.21
9225;BME280;4647;48.072;11.616;2023-05-23T18:56:41;95281.47;;;17.41;53.21
9225;BME280;4647;48.072;11.616;2023-05-23T18:59:09;95273.75;;;16.99;53.62
9225;BME280;4647;48.072;11.616;2023-05-23T19:01:40;95296.84;;;17.38;53.64
9225;BME280;4647;48.072;11.616;2023-05-23T19:04:08;95294.06;;;17.20;53.74
9225;BME280;4647;48.072;11.616;2023-05-23T19:06:37;95296.63;;;17.14;54.34
9225;BME280;4647;48.072;11.616;2023-05-23T19:09:08;95287.81;;;17.10;53.89
9225;BME280;4647;48.072;11.616;2023-05-23T19:11:37;95301.75;;;17.03;54.03
9225;BME280;4647;48.072;11.616;2023-05-23T19:14:05;95313.47;;;17.04;54.22
9225;BME280;4647;48.072;11.616;2023-05-23T19:16:34;95304.13;;;16.83;55.56
9225;BME280;4647;48.072;11.616;2023-05-23T19:19:02;95289.94;;;16.75;54.75
9225;BME280;4647;48.072;11.616;2023-05-23T19:21:30;95307.25;;;16.72;55.77
9225;BME280;4647;48.072;11.616;2023-05-23T19:23:59;95315.56;;;16.91;55.15
9225;BME280;4647;48.072;11.616;2023-05-23T19:26:35;95326.34;;;16.63;56.42
9225;BME280;4647;48.072;11.616;2023-05-23T19:29:06;95332.38;;;16.58;56.67
9225;BME280;4647;48.072;11.616;2023-05-23T19:31:34;95321.63;;;16.64;56.26
9225;BME280;4647;48.072;11.616;2023-05-23T19:34:03;95310.97;;;16.35;56.52
9225;BME280;4647;48.072;11.616;2023-05-23T19:36:32;95329.09;;;16.41;57.47
9225;BME280;4647;48.072;11.616;2023-05-23T19:39:01;95330.66;;;16.51;56.81
9225;BME280;4647;48.072;11.616;2023-05-23T19:41:33;95331.69;;;16.45;57.30
9225;BME280;4647;48.072;11.616;2023-05-23T19:44:02;95334.28;;;16.48;57.28
9225;BME280;4647;48.072;11.616;2023-05-23T19:46:30;95334.06;;;16.34;57.73